Terminal Aerodrome Forecast
Issued by NWS

Home | Current Version | Previous Version | Text Only | Print | Product List | Glossary On
Versions: 1 2 3 4 5 6 7 8 9 10 11 12 13 14 15
000
FTUS45 KGGW 050529
TAFSDY
TAF
KSDY 050529Z 0506/0606 01010KT P6SM VCSH BKN014
     FM051800 08015KT P6SM -SHRA BKN035
     FM060300 05009KT P6SM VCSH BKN060
      AMD LTD TO CLD VIS AND WIND=

USA.gov is the U.S. government's official web portal to all federal, state and local government web resources and services.